Time;durP1;ratioP1;P1;durP2;ratioP2;P2;SDS_P1;SDS_P2;PMS_P1;PMS_P2;Temp;Humidity;BMP_temperature;BMP_pressure;BME280_temperature;BME280_humidity;BME280_pressure;Samples;Min_cycle;Max_cycle;Signal;HPM_P1;HPM_P2
2023/03/27 00:00:45;;;;;;;11.65;3.00;;;;;;;;;;5034555;28;20432;-82
2023/03/27 00:03:13;;;;;;;14.45;3.10;;;;;;;;;;5000548;28;20428;-82
2023/03/27 00:05:40;;;;;;;10.40;2.72;;;;;;;;;;5018722;28;20455;-88
2023/03/27 00:08:09;;;;;;;9.68;2.90;;;;;;;;;;5001352;28;20456;-87
2023/03/27 00:10:36;;;;;;;12.57;2.85;;;;;;;;;;5002798;28;20425;-87
2023/03/27 00:13:02;;;;;;;14.80;3.13;;;;;;;;;;5001359;28;20512;-87
2023/03/27 00:15:29;;;;;;;12.98;2.92;;;;;;;;;;5015034;28;20417;-87
2023/03/27 00:17:57;;;;;;;14.07;2.80;;;;;;;;;;5015282;28;20464;-87
2023/03/27 00:20:24;;;;;;;10.32;2.83;;;;;;;;;;5027694;28;20441;-87
2023/03/27 00:22:55;;;;;;;11.73;2.83;;;;;;;;;;5009121;28;20437;-87
2023/03/27 00:25:25;;;;;;;10.13;2.80;;;;;;;;;;5028426;28;20407;-88
2023/03/27 00:27:53;;;;;;;13.40;2.85;;;;;;;;;;5016159;28;20482;-87
2023/03/27 00:30:19;;;;;;;12.73;2.75;;;;;;;;;;5000714;28;20496;-87
2023/03/27 00:32:46;;;;;;;10.93;2.80;;;;;;;;;;5016952;28;20508;-86
2023/03/27 00:35:13;;;;;;;13.55;3.00;;;;;;;;;;5016694;28;20419;-86
2023/03/27 00:37:39;;;;;;;8.25;2.70;;;;;;;;;;4996812;28;20417;-80
2023/03/27 00:40:06;;;;;;;13.02;3.13;;;;;;;;;;4997186;28;20431;-80
2023/03/27 00:42:33;;;;;;;12.10;2.87;;;;;;;;;;5016820;28;20411;-80
2023/03/27 00:44:59;;;;;;;10.87;2.83;;;;;;;;;;5016739;28;20460;-80
2023/03/27 00:47:31;;;;;;;15.70;3.05;;;;;;;;;;4994614;28;20409;-80
2023/03/27 00:49:58;;;;;;;14.73;2.90;;;;;;;;;;5033538;28;20475;-79
2023/03/27 00:52:28;;;;;;;9.85;2.90;;;;;;;;;;5016015;28;20441;-79
2023/03/27 00:54:55;;;;;;;12.60;3.10;;;;;;;;;;4996421;28;20427;-79
2023/03/27 00:57:21;;;;;;;13.27;2.80;;;;;;;;;;5011723;28;20496;-79
2023/03/27 00:59:48;;;;;;;11.45;3.00;;;;;;;;;;5032220;28;20440;-79
2023/03/27 01:02:15;;;;;;;10.10;2.90;;;;;;;;;;5015523;28;20409;-79
2023/03/27 01:04:42;;;;;;;11.25;2.80;;;;;;;;;;5008340;28;20413;-79
2023/03/27 01:07:10;;;;;;;10.57;2.83;;;;;;;;;;5012463;28;20422;-79
2023/03/27 01:09:36;;;;;;;12.35;2.95;;;;;;;;;;5005080;28;20508;-80
2023/03/27 01:12:11;;;;;;;15.55;3.00;;;;;;;;;;5014865;28;20439;-80
2023/03/27 01:14:45;;;;;;;12.20;3.05;;;;;;;;;;5033479;28;20413;-80
2023/03/27 01:17:27;;;;;;;13.23;2.90;;;;;;;;;;5015728;28;20422;-79
2023/03/27 01:20:06;;;;;;;12.18;2.90;;;;;;;;;;5025395;28;20501;-79
2023/03/27 01:22:51;;;;;;;13.95;3.00;;;;;;;;;;5015824;28;20471;-80
2023/03/27 01:25:20;;;;;;;13.85;3.10;;;;;;;;;;5033052;28;20405;-80
2023/03/27 01:27:46;;;;;;;11.85;3.30;;;;;;;;;;5033196;28;20417;-81
2023/03/27 01:30:33;;;;;;;15.68;3.10;;;;;;;;;;5015598;28;20512;-81
2023/03/27 01:33:06;;;;;;;12.68;3.17;;;;;;;;;;5033229;28;20416;-81
2023/03/27 01:35:32;;;;;;;13.45;3.03;;;;;;;;;;5032891;28;20420;-79
2023/03/27 01:38:04;;;;;;;13.63;3.00;;;;;;;;;;5015989;28;20410;-79
2023/03/27 01:40:38;;;;;;;12.32;2.90;;;;;;;;;;5015857;28;20445;-79
2023/03/27 01:43:11;;;;;;;12.00;2.88;;;;;;;;;;5015286;28;20414;-87
2023/03/27 01:45:44;;;;;;;10.90;3.00;;;;;;;;;;5015280;28;20422;-80
2023/03/27 01:48:22;;;;;;;11.90;2.53;;;;;;;;;;5025828;28;20442;-80
2023/03/27 01:50:54;;;;;;;12.68;3.13;;;;;;;;;;5035891;28;20558;-79
2023/03/27 01:53:27;;;;;;;10.75;2.90;;;;;;;;;;5020004;28;20420;-80
2023/03/27 01:55:57;;;;;;;9.73;2.83;;;;;;;;;;5016107;28;20426;-80
2023/03/27 01:58:27;;;;;;;12.37;3.00;;;;;;;;;;5018911;28;20489;-80
2023/03/27 02:00:55;;;;;;;11.95;2.75;;;;;;;;;;5019486;28;20429;-79
2023/03/27 02:03:28;;;;;;;16.55;3.10;;;;;;;;;;5036186;28;20464;-79
2023/03/27 02:06:02;;;;;;;13.55;3.08;;;;;;;;;;5010000;28;20429;-79
2023/03/27 02:08:52;;;;;;;12.20;3.20;;;;;;;;;;5019286;28;20501;-79
2023/03/27 02:11:18;;;;;;;14.38;3.15;;;;;;;;;;5013884;28;20421;-79
2023/03/27 02:13:53;;;;;;;13.20;3.22;;;;;;;;;;5019041;28;20424;-79
2023/03/27 02:16:22;;;;;;;14.57;3.15;;;;;;;;;;5004970;28;20526;-79
2023/03/27 02:18:57;;;;;;;9.85;3.00;;;;;;;;;;5034664;28;20428;-81
2023/03/27 02:21:23;;;;;;;9.73;2.80;;;;;;;;;;5018753;28;20433;-81
2023/03/27 02:23:50;;;;;;;16.20;3.63;;;;;;;;;;5002538;28;20496;-81
2023/03/27 02:26:16;;;;;;;13.05;3.10;;;;;;;;;;5018978;28;20445;-81
2023/03/27 02:28:51;;;;;;;10.30;3.10;;;;;;;;;;5013221;28;20422;-81
2023/03/27 02:31:30;;;;;;;12.80;3.40;;;;;;;;;;5030876;28;20467;-81
2023/03/27 02:34:14;;;;;;;8.95;3.15;;;;;;;;;;5034728;28;20421;-79
2023/03/27 02:36:47;;;;;;;10.02;3.20;;;;;;;;;;5018127;28;20455;-79
2023/03/27 02:39:28;;;;;;;14.52;3.50;;;;;;;;;;5018393;28;20425;-79
2023/03/27 02:41:54;;;;;;;10.83;2.90;;;;;;;;;;5018392;28;21046;-79
2023/03/27 02:44:40;;;;;;;10.05;2.90;;;;;;;;;;5034652;28;20413;-79
2023/03/27 02:47:09;;;;;;;10.50;2.88;;;;;;;;;;5018510;28;20416;-86
2023/03/27 02:49:39;;;;;;;11.30;3.10;;;;;;;;;;5018642;28;20496;-87
2023/03/27 02:52:18;;;;;;;10.68;2.97;;;;;;;;;;5034283;28;20413;-79
2023/03/27 02:54:46;;;;;;;10.68;3.10;;;;;;;;;;5034797;28;20405;-81
2023/03/27 02:57:18;;;;;;;7.88;3.00;;;;;;;;;;5035664;28;20420;-81
2023/03/27 02:59:47;;;;;;;10.90;3.10;;;;;;;;;;5033969;28;20429;-81
2023/03/27 03:02:19;;;;;;;7.70;2.83;;;;;;;;;;5017864;28;20516;-80
2023/03/27 03:04:55;;;;;;;12.43;3.28;;;;;;;;;;5017324;28;20413;-79
2023/03/27 03:07:25;;;;;;;8.15;2.92;;;;;;;;;;5035643;28;20424;-79
2023/03/27 03:09:51;;;;;;;11.57;3.00;;;;;;;;;;5035810;28;20420;-79
2023/03/27 03:12:18;;;;;;;9.27;2.80;;;;;;;;;;5017410;28;20491;-79
2023/03/27 03:14:45;;;;;;;10.30;2.80;;;;;;;;;;5035755;28;20417;-79
2023/03/27 03:17:12;;;;;;;10.63;3.10;;;;;;;;;;5035824;28;20421;-79
2023/03/27 03:19:38;;;;;;;8.07;2.80;;;;;;;;;;5018144;28;20456;-79
2023/03/27 03:22:04;;;;;;;12.20;3.35;;;;;;;;;;5017557;28;20448;-80
2023/03/27 03:24:31;;;;;;;9.63;2.90;;;;;;;;;;5017703;28;20429;-80
2023/03/27 03:26:58;;;;;;;8.70;2.95;;;;;;;;;;5034611;28;20471;-80
2023/03/27 03:29:28;;;;;;;8.40;2.67;;;;;;;;;;5017962;28;20417;-79
2023/03/27 03:31:55;;;;;;;12.43;3.00;;;;;;;;;;5018048;28;20463;-80
2023/03/27 03:34:21;;;;;;;8.90;2.75;;;;;;;;;;5030193;28;20433;-79
2023/03/27 03:36:48;;;;;;;8.30;3.00;;;;;;;;;;5016617;28;20473;-79
2023/03/27 03:39:14;;;;;;;8.13;3.08;;;;;;;;;;5016771;28;20424;-80
2023/03/27 03:41:40;;;;;;;9.48;2.90;;;;;;;;;;5017697;28;20486;-81
2023/03/27 03:44:07;;;;;;;9.38;3.00;;;;;;;;;;5001253;28;20500;-81
2023/03/27 03:46:33;;;;;;;9.43;2.85;;;;;;;;;;5000601;28;20476;-81
2023/03/27 03:49:00;;;;;;;6.93;2.47;;;;;;;;;;5015830;28;20406;-81
2023/03/27 03:51:27;;;;;;;7.35;2.70;;;;;;;;;;5000061;28;20452;-81
2023/03/27 03:53:53;;;;;;;7.43;2.50;;;;;;;;;;5013893;28;20426;-82
2023/03/27 03:56:19;;;;;;;7.35;2.33;;;;;;;;;;5020425;28;20412;-82
2023/03/27 03:58:45;;;;;;;6.55;2.10;;;;;;;;;;4995186;28;20409;-80
2023/03/27 04:01:11;;;;;;;6.47;2.38;;;;;;;;;;5017610;28;20425;-80
2023/03/27 04:03:37;;;;;;;5.68;2.17;;;;;;;;;;4999104;28;20519;-80
2023/03/27 04:06:04;;;;;;;4.72;2.20;;;;;;;;;;4998057;28;20411;-82
2023/03/27 04:08:30;;;;;;;6.35;1.90;;;;;;;;;;4997732;28;20418;-82
2023/03/27 04:10:57;;;;;;;4.47;1.60;;;;;;;;;;4982897;28;20193;-81
2023/03/27 04:13:23;;;;;;;5.70;1.70;;;;;;;;;;4981147;28;20181;-82
2023/03/27 04:15:50;;;;;;;2.03;1.20;;;;;;;;;;4983966;28;20177;-80
2023/03/27 04:18:31;;;;;;;4.87;1.47;;;;;;;;;;5000905;28;20200;-82
2023/03/27 04:20:57;;;;;;;4.37;1.40;;;;;;;;;;5008531;28;20208;-82
2023/03/27 04:23:29;;;;;;;4.93;1.50;;;;;;;;;;4993093;28;20438;-82
2023/03/27 04:25:58;;;;;;;1.93;1.10;;;;;;;;;;5026860;28;20251;-82
2023/03/27 04:28:29;;;;;;;5.57;1.30;;;;;;;;;;5018096;28;20199;-81
2023/03/27 04:30:55;;;;;;;3.00;1.13;;;;;;;;;;5001802;28;20196;-81
2023/03/27 04:33:21;;;;;;;2.07;1.17;;;;;;;;;;5001775;28;20283;-81
2023/03/27 04:35:51;;;;;;;2.77;1.30;;;;;;;;;;5017738;28;20177;-81
2023/03/27 04:38:18;;;;;;;4.23;1.17;;;;;;;;;;5017315;28;20192;-81
2023/03/27 04:40:48;;;;;;;5.68;1.75;;;;;;;;;;5016786;28;20429;-81
2023/03/27 04:43:15;;;;;;;3.13;1.40;;;;;;;;;;5035413;28;20169;-82
2023/03/27 04:45:43;;;;;;;1.87;1.60;;;;;;;;;;5016586;28;20184;-82
2023/03/27 04:48:09;;;;;;;4.43;1.53;;;;;;;;;;5035348;28;20180;-83
2023/03/27 04:50:36;;;;;;;5.70;1.93;;;;;;;;;;5034911;28;20176;-83
2023/03/27 04:53:02;;;;;;;2.87;1.83;;;;;;;;;;5033802;28;20180;-81
2023/03/27 04:55:29;;;;;;;5.13;1.77;;;;;;;;;;5004239;28;20188;-81
2023/03/27 04:57:58;;;;;;;5.67;2.33;;;;;;;;;;5015561;28;20181;-81
2023/03/27 05:00:25;;;;;;;4.73;2.10;;;;;;;;;;5034394;28;20208;-81
2023/03/27 05:02:54;;;;;;;5.60;2.40;;;;;;;;;;5000658;28;20208;-81
2023/03/27 05:08:45;;;;;;;4.37;1.87;;;;;;;;;;5032840;28;20183;-81
2023/03/27 05:11:32;;;;;;;5.38;1.70;;;;;;;;;;5015576;28;20417;-81
2023/03/27 05:13:58;;;;;;;2.37;1.60;;;;;;;;;;4999848;28;20203;-81
2023/03/27 05:16:41;;;;;;;5.30;1.30;;;;;;;;;;5017251;28;20192;-81
2023/03/27 05:19:27;;;;;;;4.83;1.57;;;;;;;;;;5013050;28;20199;-81
2023/03/27 05:21:54;;;;;;;5.67;1.63;;;;;;;;;;4998859;28;20209;-80
2023/03/27 05:24:20;;;;;;;3.60;1.83;;;;;;;;;;5027928;28;20233;-80
2023/03/27 05:26:47;;;;;;;2.10;1.60;;;;;;;;;;5013093;28;20177;-80
2023/03/27 05:29:14;;;;;;;3.87;1.80;;;;;;;;;;5029455;28;20304;-81
2023/03/27 05:31:40;;;;;;;5.57;1.80;;;;;;;;;;5013453;28;20189;-82
2023/03/27 05:34:06;;;;;;;4.00;1.60;;;;;;;;;;5029921;28;20184;-82
2023/03/27 05:36:34;;;;;;;4.97;1.77;;;;;;;;;;5013393;28;20218;-83
2023/03/27 05:39:00;;;;;;;4.60;1.90;;;;;;;;;;5030310;28;20185;-82
2023/03/27 05:41:26;;;;;;;4.80;1.87;;;;;;;;;;5013349;28;20244;-82
2023/03/27 05:43:53;;;;;;;4.40;1.90;;;;;;;;;;5013294;28;20181;-82
2023/03/27 05:46:19;;;;;;;7.67;2.10;;;;;;;;;;5012695;28;20181;-82
2023/03/27 05:48:45;;;;;;;4.40;1.93;;;;;;;;;;5013073;28;20185;-82
2023/03/27 05:51:11;;;;;;;4.53;2.07;;;;;;;;;;4980097;28;20193;-82
2023/03/27 05:53:40;;;;;;;5.20;2.03;;;;;;;;;;4980062;28;20189;-82
2023/03/27 05:56:07;;;;;;;5.47;1.90;;;;;;;;;;5012118;28;20216;-82
2023/03/27 05:58:33;;;;;;;5.17;2.00;;;;;;;;;;5012554;28;20173;-82
2023/03/27 06:00:59;;;;;;;4.17;2.00;;;;;;;;;;5012539;28;20307;-83
2023/03/27 06:03:28;;;;;;;6.40;2.13;;;;;;;;;;4980453;28;20209;-82
2023/03/27 06:05:54;;;;;;;5.37;2.07;;;;;;;;;;5014281;28;20173;-83
2023/03/27 06:08:21;;;;;;;5.50;2.00;;;;;;;;;;4981219;28;20319;-82
2023/03/27 06:10:47;;;;;;;6.70;1.90;;;;;;;;;;4997185;28;20178;-88
2023/03/27 06:13:13;;;;;;;5.43;2.20;;;;;;;;;;5013313;28;20182;-89
2023/03/27 06:15:42;;;;;;;4.57;2.00;;;;;;;;;;4980658;28;20192;-88
2023/03/27 06:18:09;;;;;;;5.73;2.20;;;;;;;;;;5013144;28;20182;-88
2023/03/27 06:20:36;;;;;;;3.83;2.17;;;;;;;;;;5013115;28;20209;-88
2023/03/27 06:23:03;;;;;;;7.63;2.37;;;;;;;;;;4988761;28;20228;-88
2023/03/27 06:25:33;;;;;;;4.87;2.73;;;;;;;;;;5000198;28;20215;-89
2023/03/27 06:27:59;;;;;;;4.20;2.53;;;;;;;;;;5033200;28;20179;-81
2023/03/27 06:30:26;;;;;;;7.00;2.90;;;;;;;;;;5032671;28;20190;-81
2023/03/27 06:32:53;;;;;;;7.00;2.80;;;;;;;;;;5000599;28;20180;-81
2023/03/27 06:35:20;;;;;;;7.00;3.07;;;;;;;;;;5033577;28;20181;-81
2023/03/27 06:37:47;;;;;;;5.80;2.97;;;;;;;;;;5003955;28;20196;-81
2023/03/27 06:40:24;;;;;;;6.35;2.75;;;;;;;;;;5036312;28;20463;-82
2023/03/27 06:42:57;;;;;;;10.63;3.70;;;;;;;;;;5036209;28;20173;-81
2023/03/27 06:45:24;;;;;;;7.00;2.70;;;;;;;;;;5037090;28;20188;-83
2023/03/27 06:47:52;;;;;;;7.60;2.77;;;;;;;;;;5036091;28;20181;-83
2023/03/27 06:50:18;;;;;;;8.00;2.70;;;;;;;;;;5003398;28;20189;-82
2023/03/27 06:52:44;;;;;;;9.63;3.43;;;;;;;;;;5035865;28;20188;-83
2023/03/27 06:55:11;;;;;;;9.20;3.17;;;;;;;;;;5034370;28;20181;-82
2023/03/27 06:57:41;;;;;;;6.13;2.60;;;;;;;;;;5000023;28;20181;-82
2023/03/27 07:00:27;;;;;;;7.53;3.40;;;;;;;;;;5000237;28;20236;-81
2023/03/27 07:02:55;;;;;;;7.67;2.57;;;;;;;;;;5003046;28;20185;-89
2023/03/27 07:05:21;;;;;;;8.17;2.60;;;;;;;;;;4999605;28;20177;-89
2023/03/27 07:07:47;;;;;;;8.03;2.47;;;;;;;;;;4999768;28;20338;-89
2023/03/27 07:10:14;;;;;;;9.03;2.90;;;;;;;;;;5001220;28;20204;-89
2023/03/27 07:12:44;;;;;;;5.70;2.40;;;;;;;;;;5011057;28;20177;-89
2023/03/27 07:15:10;;;;;;;5.00;2.40;;;;;;;;;;5018824;28;20185;-89
2023/03/27 07:17:36;;;;;;;8.13;2.30;;;;;;;;;;5003889;28;20283;-81
2023/03/27 07:20:04;;;;;;;6.80;2.40;;;;;;;;;;5037656;28;20212;-81
2023/03/27 07:22:30;;;;;;;5.17;2.57;;;;;;;;;;5036742;28;20220;-81
2023/03/27 07:24:56;;;;;;;5.73;2.63;;;;;;;;;;5018911;28;20188;-82
2023/03/27 07:27:26;;;;;;;5.73;2.47;;;;;;;;;;5019018;28;20212;-81
2023/03/27 07:29:52;;;;;;;9.83;2.67;;;;;;;;;;5018991;28;20187;-81
2023/03/27 07:32:18;;;;;;;5.37;2.50;;;;;;;;;;5019260;28;20185;-82
2023/03/27 07:34:45;;;;;;;6.13;2.40;;;;;;;;;;5035893;28;20188;-82
2023/03/27 07:37:11;;;;;;;10.00;2.87;;;;;;;;;;5052875;22;20267;-76
2023/03/27 07:39:37;;;;;;;13.10;2.67;;;;;;;;;;5038200;28;20263;-77
2023/03/27 07:42:03;;;;;;;11.30;2.80;;;;;;;;;;5038202;28;20180;-77
2023/03/27 07:44:29;;;;;;;9.67;3.20;;;;;;;;;;5038040;28;20183;-77
2023/03/27 07:46:55;;;;;;;7.37;2.40;;;;;;;;;;5037776;28;20164;-77
2023/03/27 07:49:21;;;;;;;9.33;2.90;;;;;;;;;;5021378;28;20176;-77
2023/03/27 07:51:47;;;;;;;5.80;2.70;;;;;;;;;;5021559;28;20188;-76
2023/03/27 07:54:14;;;;;;;7.20;2.60;;;;;;;;;;5037658;28;20211;-76
2023/03/27 07:56:40;;;;;;;9.23;2.80;;;;;;;;;;5021836;28;20199;-76
2023/03/27 07:59:06;;;;;;;8.87;2.70;;;;;;;;;;5037764;28;20265;-76
2023/03/27 08:01:33;;;;;;;9.50;2.73;;;;;;;;;;5021165;28;20269;-76
2023/03/27 08:03:59;;;;;;;10.33;2.50;;;;;;;;;;5021230;28;20218;-76
2023/03/27 08:06:26;;;;;;;12.20;2.90;;;;;;;;;;5021215;28;20207;-76
2023/03/27 08:08:52;;;;;;;7.97;2.47;;;;;;;;;;5037489;28;20176;-76
2023/03/27 08:11:18;;;;;;;7.77;2.70;;;;;;;;;;5037388;28;20186;-76
2023/03/27 08:13:45;;;;;;;11.23;2.83;;;;;;;;;;5020983;28;20183;-76
2023/03/27 08:16:13;;;;;;;13.50;3.30;;;;;;;;;;5020928;28;20237;-76
2023/03/27 08:18:39;;;;;;;10.40;3.07;;;;;;;;;;5037371;28;20183;-76
2023/03/27 08:21:07;;;;;;;6.10;2.70;;;;;;;;;;5037559;28;20218;-76
2023/03/27 08:23:33;;;;;;;8.10;2.67;;;;;;;;;;5021012;28;20184;-75
2023/03/27 08:25:59;;;;;;;6.50;2.30;;;;;;;;;;5020682;28;20184;-75
2023/03/27 08:28:29;;;;;;;10.53;2.87;;;;;;;;;;5037198;28;20219;-75
2023/03/27 08:30:56;;;;;;;10.43;3.20;;;;;;;;;;5036949;28;20267;-75
2023/03/27 08:33:22;;;;;;;10.23;2.70;;;;;;;;;;5036873;28;20180;-75
2023/03/27 08:35:49;;;;;;;8.00;2.50;;;;;;;;;;5037330;28;20184;-75
2023/03/27 08:38:15;;;;;;;10.97;2.23;;;;;;;;;;5037284;28;20261;-75
2023/03/27 08:40:49;;;;;;;9.03;2.93;;;;;;;;;;5021404;28;20310;-77
2023/03/27 08:43:17;;;;;;;10.43;2.80;;;;;;;;;;5037006;28;20263;-77
2023/03/27 08:45:50;;;;;;;9.57;2.60;;;;;;;;;;5037140;28;20180;-77
2023/03/27 08:48:22;;;;;;;7.73;2.60;;;;;;;;;;5054771;28;20210;-78
2023/03/27 08:50:53;;;;;;;10.30;2.50;;;;;;;;;;5036933;28;20184;-77
2023/03/27 08:53:32;;;;;;;5.40;1.90;;;;;;;;;;5036788;28;20180;-78
2023/03/27 08:56:00;;;;;;;7.13;2.27;;;;;;;;;;5036779;28;20245;-78
2023/03/27 08:58:26;;;;;;;6.73;2.23;;;;;;;;;;5036754;28;20263;-76
2023/03/27 09:01:05;;;;;;;4.47;1.50;;;;;;;;;;5020060;28;20216;-75
2023/03/27 09:03:34;;;;;;;1.47;1.20;;;;;;;;;;5036631;28;20176;-77
2023/03/27 09:06:07;;;;;;;1.73;1.00;;;;;;;;;;5036508;28;20175;-77
2023/03/27 09:08:41;;;;;;;1.13;0.77;;;;;;;;;;5037015;28;20252;-80
2023/03/27 09:11:21;;;;;;;3.03;1.00;;;;;;;;;;5037209;28;20176;-81
2023/03/27 09:13:48;;;;;;;1.57;0.87;;;;;;;;;;5036825;28;20191;-81
2023/03/27 09:16:33;;;;;;;1.67;0.90;;;;;;;;;;5036990;28;20271;-81
2023/03/27 09:19:03;;;;;;;1.00;0.83;;;;;;;;;;5036582;28;20184;-81
2023/03/27 09:21:44;;;;;;;0.70;0.70;;;;;;;;;;5036759;28;20252;-81
2023/03/27 09:24:20;;;;;;;1.83;0.90;;;;;;;;;;5036902;28;20215;-81
2023/03/27 09:26:46;;;;;;;1.40;0.80;;;;;;;;;;5036732;28;20262;-81
2023/03/27 09:29:12;;;;;;;1.23;0.70;;;;;;;;;;5036768;28;20225;-81
2023/03/27 09:31:52;;;;;;;1.37;0.87;;;;;;;;;;5036598;28;20179;-82
2023/03/27 09:34:23;;;;;;;2.23;1.10;;;;;;;;;;5036354;28;20179;-82
2023/03/27 09:36:50;;;;;;;1.87;0.90;;;;;;;;;;5036316;28;20172;-81
2023/03/27 09:39:20;;;;;;;2.73;0.90;;;;;;;;;;5019966;28;20293;-81
2023/03/27 09:42:19;;;;;;;2.63;1.10;;;;;;;;;;5054048;28;20204;-82
2023/03/27 09:44:47;;;;;;;2.20;0.90;;;;;;;;;;5010106;28;20211;-82
2023/03/27 09:47:17;;;;;;;2.37;0.90;;;;;;;;;;5054102;28;20172;-79
2023/03/27 09:49:49;;;;;;;4.30;1.40;;;;;;;;;;5036819;28;20184;-79
2023/03/27 09:52:33;;;;;;;3.17;1.20;;;;;;;;;;5037021;28;20210;-79
2023/03/27 09:54:59;;;;;;;5.40;1.30;;;;;;;;;;5053770;28;20180;-79
2023/03/27 09:57:32;;;;;;;4.77;1.50;;;;;;;;;;5019742;28;20191;-79
2023/03/27 10:00:08;;;;;;;3.93;1.40;;;;;;;;;;5036131;28;20215;-79
2023/03/27 10:02:36;;;;;;;4.10;1.47;;;;;;;;;;5036161;28;20171;-79
2023/03/27 10:05:11;;;;;;;3.60;1.17;;;;;;;;;;5036161;28;20172;-79
2023/03/27 10:07:38;;;;;;;4.33;1.33;;;;;;;;;;5036140;28;20179;-78
2023/03/27 10:10:10;;;;;;;4.57;1.17;;;;;;;;;;5055351;28;20194;-78
2023/03/27 10:12:37;;;;;;;4.77;1.40;;;;;;;;;;5040297;28;20245;-78
2023/03/27 10:15:04;;;;;;;3.67;1.10;;;;;;;;;;5040122;28;20179;-78
2023/03/27 10:17:36;;;;;;;2.97;1.17;;;;;;;;;;5057718;28;20176;-78
2023/03/27 10:20:10;;;;;;;3.63;1.13;;;;;;;;;;5039864;28;20208;-78
2023/03/27 10:22:37;;;;;;;3.60;1.20;;;;;;;;;;5039864;28;20248;-76
2023/03/27 10:25:13;;;;;;;4.63;1.30;;;;;;;;;;5040198;28;20244;-76
2023/03/27 10:27:42;;;;;;;3.93;1.20;;;;;;;;;;5057573;28;20203;-76
2023/03/27 10:30:32;;;;;;;1.87;1.17;;;;;;;;;;5039830;28;20184;-76
2023/03/27 10:32:58;;;;;;;4.50;1.30;;;;;;;;;;5047222;28;20195;-82
2023/03/27 10:35:29;;;;;;;4.33;1.40;;;;;;;;;;5039327;28;20184;-82
2023/03/27 10:37:55;;;;;;;3.40;1.20;;;;;;;;;;5039077;28;20318;-76
2023/03/27 10:40:24;;;;;;;4.17;1.17;;;;;;;;;;5039007;28;20212;-77
2023/03/27 10:42:50;;;;;;;4.23;1.40;;;;;;;;;;5056780;28;20168;-77
2023/03/27 10:45:20;;;;;;;2.57;1.20;;;;;;;;;;5039263;28;20176;-77
2023/03/27 10:47:48;;;;;;;4.73;1.27;;;;;;;;;;5038972;28;20176;-77
2023/03/27 10:50:27;;;;;;;4.73;1.40;;;;;;;;;;5039105;28;20184;-77
2023/03/27 10:53:02;;;;;;;3.73;1.30;;;;;;;;;;5056505;28;20175;-77
2023/03/27 10:55:28;;;;;;;5.87;1.40;;;;;;;;;;5039310;28;20176;-80
2023/03/27 10:57:57;;;;;;;5.20;1.70;;;;;;;;;;5038797;28;20176;-80
2023/03/27 11:00:39;;;;;;;3.13;1.20;;;;;;;;;;5038628;28;20208;-79
2023/03/27 11:03:09;;;;;;;4.27;1.20;;;;;;;;;;5038653;28;20175;-79
2023/03/27 11:05:40;;;;;;;4.20;1.50;;;;;;;;;;5038737;28;20187;-80
2023/03/27 11:08:09;;;;;;;5.50;1.30;;;;;;;;;;5056530;28;20168;-80
2023/03/27 11:10:42;;;;;;;5.17;1.40;;;;;;;;;;5056308;28;20204;-83
2023/03/27 11:13:11;;;;;;;3.00;1.40;;;;;;;;;;5039031;28;20180;-82
2023/03/27 11:15:41;;;;;;;3.90;1.40;;;;;;;;;;5038849;28;20208;-83
2023/03/27 11:18:13;;;;;;;4.87;1.43;;;;;;;;;;5056404;28;20172;-83
2023/03/27 11:20:45;;;;;;;4.00;1.50;;;;;;;;;;5038518;28;20242;-82
2023/03/27 11:23:21;;;;;;;5.13;1.50;;;;;;;;;;5038079;28;20180;-82
2023/03/27 11:25:52;;;;;;;4.43;1.10;;;;;;;;;;5038422;28;20186;-83
2023/03/27 11:28:18;;;;;;;5.53;1.30;;;;;;;;;;5038405;28;20287;-77
2023/03/27 11:30:47;;;;;;;4.43;1.50;;;;;;;;;;5038181;28;20294;-77
2023/03/27 11:33:24;;;;;;;3.87;1.30;;;;;;;;;;5038339;28;20240;-77
2023/03/27 11:36:13;;;;;;;3.37;1.13;;;;;;;;;;5038660;28;20190;-77
2023/03/27 11:38:44;;;;;;;5.33;1.50;;;;;;;;;;5002076;28;20253;-77
2023/03/27 11:41:13;;;;;;;2.93;1.00;;;;;;;;;;5055926;28;20207;-77
2023/03/27 11:43:39;;;;;;;3.30;1.23;;;;;;;;;;5038508;28;20172;-82
2023/03/27 11:46:33;;;;;;;2.67;1.43;;;;;;;;;;5038787;28;20230;-82
2023/03/27 11:49:09;;;;;;;6.33;1.50;;;;;;;;;;5038290;28;20287;-82
2023/03/27 11:51:41;;;;;;;5.27;1.60;;;;;;;;;;5038659;28;20171;-82
2023/03/27 11:54:26;;;;;;;4.03;1.70;;;;;;;;;;5038169;28;20180;-82
2023/03/27 11:56:55;;;;;;;3.83;1.60;;;;;;;;;;5038135;28;20184;-82
2023/03/27 11:59:35;;;;;;;4.30;1.50;;;;;;;;;;5038719;28;20180;-82
2023/03/27 12:02:14;;;;;;;5.23;1.70;;;;;;;;;;5037958;28;20208;-79
2023/03/27 12:04:40;;;;;;;4.87;1.60;;;;;;;;;;5038265;28;20179;-80
2023/03/27 12:07:11;;;;;;;7.20;1.97;;;;;;;;;;5038175;28;20180;-79
2023/03/27 12:09:37;;;;;;;5.13;1.93;;;;;;;;;;5037927;28;20184;-79
2023/03/27 12:12:25;;;;;;;5.67;1.57;;;;;;;;;;5038174;28;20270;-79
2023/03/27 12:15:23;;;;;;;5.13;1.40;;;;;;;;;;5055397;28;20187;-80
2023/03/27 12:17:54;;;;;;;5.67;1.70;;;;;;;;;;4995184;28;20191;-82
2023/03/27 12:20:40;;;;;;;7.53;1.80;;;;;;;;;;5038012;28;20294;-82
2023/03/27 12:23:12;;;;;;;4.97;1.50;;;;;;;;;;5037483;28;20175;-82
2023/03/27 12:25:46;;;;;;;5.67;1.40;;;;;;;;;;5055434;28;20172;-82
2023/03/27 12:28:18;;;;;;;3.97;1.37;;;;;;;;;;5037267;28;20186;-82
2023/03/27 12:30:59;;;;;;;3.83;1.30;;;;;;;;;;5037032;28;20207;-82
2023/03/27 12:33:28;;;;;;;4.47;1.50;;;;;;;;;;5036186;28;20187;-82
2023/03/27 12:35:56;;;;;;;5.67;1.70;;;;;;;;;;5017292;28;20181;-79
2023/03/27 12:38:28;;;;;;;5.07;1.47;;;;;;;;;;5017227;28;20235;-80
2023/03/27 12:41:04;;;;;;;5.80;1.30;;;;;;;;;;5017226;28;20218;-79
2023/03/27 12:43:32;;;;;;;4.57;1.53;;;;;;;;;;5017865;28;20176;-79
2023/03/27 12:46:13;;;;;;;7.17;1.60;;;;;;;;;;5034876;28;20176;-80
2023/03/27 12:48:48;;;;;;;7.63;1.63;;;;;;;;;;5034745;28;20168;-80
2023/03/27 12:51:18;;;;;;;5.03;1.47;;;;;;;;;;5017074;28;20199;-76
2023/03/27 12:53:54;;;;;;;6.57;1.60;;;;;;;;;;5017655;28;20188;-76
2023/03/27 12:56:25;;;;;;;4.37;1.40;;;;;;;;;;5017638;28;20207;-76
2023/03/27 12:58:53;;;;;;;4.07;1.70;;;;;;;;;;5017311;28;20183;-76
2023/03/27 13:01:43;;;;;;;3.47;1.30;;;;;;;;;;5034579;28;20204;-76
2023/03/27 13:04:28;;;;;;;6.27;1.70;;;;;;;;;;5016966;28;20203;-76
2023/03/27 13:07:03;;;;;;;5.33;1.33;;;;;;;;;;5017023;28;20181;-76
2023/03/27 13:09:35;;;;;;;4.73;1.60;;;;;;;;;;5017303;28;20188;-77
2023/03/27 13:12:08;;;;;;;5.22;1.90;;;;;;;;;;5017140;28;20406;-77
2023/03/27 13:14:53;;;;;;;7.63;2.25;;;;;;;;;;5016416;28;20405;-77
2023/03/27 13:17:22;;;;;;;15.60;1.73;;;;;;;;;;5016812;28;20183;-77
2023/03/27 13:19:51;;;;;;;8.73;1.50;;;;;;;;;;5034309;28;20176;-77
2023/03/27 13:22:34;;;;;;;9.83;1.97;;;;;;;;;;5016794;28;20173;-77
2023/03/27 13:25:04;;;;;;;5.63;1.50;;;;;;;;;;5016747;28;20176;-76
2023/03/27 13:27:39;;;;;;;3.10;1.73;;;;;;;;;;5034302;28;20256;-76
2023/03/27 13:30:06;;;;;;;8.30;1.90;;;;;;;;;;5034422;28;20173;-76
2023/03/27 13:32:39;;;;;;;4.97;1.53;;;;;;;;;;5033099;28;20200;-76
2023/03/27 13:35:18;;;;;;;4.27;1.50;;;;;;;;;;5016760;28;20183;-76
2023/03/27 13:37:50;;;;;;;7.67;1.57;;;;;;;;;;5016847;28;20224;-76
2023/03/27 13:40:23;;;;;;;4.00;1.23;;;;;;;;;;5034091;28;20208;-77
2023/03/27 13:43:07;;;;;;;8.37;1.40;;;;;;;;;;5016892;28;20183;-77
2023/03/27 13:45:45;;;;;;;8.17;1.93;;;;;;;;;;5048127;28;20186;-77
2023/03/27 13:48:19;;;;;;;5.67;1.30;;;;;;;;;;5059497;28;20172;-77
2023/03/27 13:50:48;;;;;;;4.33;1.40;;;;;;;;;;5059482;28;20243;-77
2023/03/27 13:53:20;;;;;;;4.23;1.40;;;;;;;;;;5059879;28;20180;-77
2023/03/27 13:55:56;;;;;;;3.83;1.40;;;;;;;;;;5059474;28;20229;-77
2023/03/27 13:58:37;;;;;;;5.97;1.30;;;;;;;;;;5059650;28;20210;-81
2023/03/27 14:01:23;;;;;;;4.97;1.48;;;;;;;;;;5058917;28;20537;-81
2023/03/27 14:03:56;;;;;;;5.97;1.50;;;;;;;;;;5059457;28;20182;-81
2023/03/27 14:06:31;;;;;;;4.63;1.37;;;;;;;;;;5059410;28;20167;-82
2023/03/27 14:09:16;;;;;;;4.47;1.40;;;;;;;;;;5060401;28;20199;-82
2023/03/27 14:12:01;;;;;;;4.27;1.30;;;;;;;;;;5059260;28;20198;-82
2023/03/27 14:14:45;;;;;;;6.87;1.50;;;;;;;;;;5060579;28;20171;-77
2023/03/27 14:17:17;;;;;;;7.87;1.50;;;;;;;;;;5060008;28;20252;-77
2023/03/27 14:19:43;;;;;;;5.17;1.50;;;;;;;;;;5058788;28;20179;-77
2023/03/27 14:22:16;;;;;;;3.90;1.30;;;;;;;;;;5042258;28;20217;-77
2023/03/27 14:24:54;;;;;;;5.23;1.87;;;;;;;;;;5042356;28;20182;-77
2023/03/27 14:27:21;;;;;;;7.17;1.57;;;;;;;;;;5038971;28;20180;-77
2023/03/27 14:30:06;;;;;;;4.63;1.53;;;;;;;;;;5006154;28;20211;-77
2023/03/27 14:32:32;;;;;;;4.97;1.40;;;;;;;;;;5022370;28;20181;-76
2023/03/27 14:35:03;;;;;;;7.67;1.50;;;;;;;;;;5022521;28;20248;-76
2023/03/27 14:37:30;;;;;;;5.07;1.53;;;;;;;;;;5023051;28;20266;-76
2023/03/27 14:39:57;;;;;;;5.20;1.40;;;;;;;;;;5022595;28;20187;-76
2023/03/27 14:42:26;;;;;;;5.40;1.70;;;;;;;;;;5022251;28;20172;-77
2023/03/27 14:44:52;;;;;;;8.93;1.90;;;;;;;;;;5022277;28;20173;-76
2023/03/27 14:47:21;;;;;;;5.50;1.40;;;;;;;;;;5021769;28;20176;-81
2023/03/27 14:49:49;;;;;;;7.17;1.60;;;;;;;;;;5020293;28;20180;-82
2023/03/27 14:52:20;;;;;;;6.57;1.60;;;;;;;;;;5020458;28;20176;-81
2023/03/27 14:54:47;;;;;;;5.83;1.30;;;;;;;;;;5021599;28;20184;-82
2023/03/27 14:57:13;;;;;;;9.20;1.60;;;;;;;;;;5017426;28;20188;-81
2023/03/27 14:59:41;;;;;;;4.53;1.70;;;;;;;;;;5002871;28;20275;-81
2023/03/27 15:02:19;;;;;;;8.30;1.90;;;;;;;;;;5018855;28;20243;-79
2023/03/27 15:04:45;;;;;;;8.20;2.00;;;;;;;;;;5019025;28;20286;-82